AIZ295 LROP-LLBG
Flight info
| Callsign | AIZ295 |
|---|---|
| Flight time | 2h 27m |
| Altitude | 36000 |
| Route | POLUN DCT TIMUR N181 NIKTI UN127 ASPIV UN644 PIBOM UN131 KULAR UT39 TOMBI DCT IDAKU L35 PIKOG L609 ZUKKO |
| Aircraft | A21N/M-SDE2E3FGHIRWXY/LB1 |
Departure
| Time | 2026-04-30 12:37 |
|---|---|
| Airport | Bucharest Henri Coandă International Airport (LROP) |
Arrival
| Time | 2026-04-30 15:04 |
|---|---|
| Airport | Ben Gurion International Airport (LLBG) |
| Time | Latitude | Longitude | Altitude | Speed | Heading |
|---|---|---|---|---|---|
| 2026-04-30 12:09 | 44.57148 | 26.08111 | 320 ft | 0 kts | 173° |
| 2026-04-30 12:10 | 44.57144 | 26.08112 | 321 ft | 0 kts | 174° |
| 2026-04-30 12:31 | 44.57145 | 26.08112 | 324 ft | 1 kts | 174° |
| 2026-04-30 12:32 | 44.57168 | 26.08109 | 321 ft | 4 kts | 174° |
| 2026-04-30 12:32 | 44.57190 | 26.08106 | 323 ft | 4 kts | 171° |
| 2026-04-30 12:32 | 44.57203 | 26.08094 | 322 ft | 4 kts | 88° |
| 2026-04-30 12:32 | 44.57201 | 26.08059 | 322 ft | 4 kts | 84° |
| 2026-04-30 12:33 | 44.57200 | 26.08051 | 323 ft | 1 kts | 84° |
| 2026-04-30 12:35 | 44.57202 | 26.08177 | 322 ft | 16 kts | 84° |
| 2026-04-30 12:36 | 44.57225 | 26.08357 | 322 ft | 24 kts | 81° |
| 2026-04-30 12:36 | 44.57277 | 26.08498 | 322 ft | 8 kts | 10° |
| 2026-04-30 12:36 | 44.57436 | 26.08476 | 321 ft | 31 kts | 354° |
| 2026-04-30 12:36 | 44.57630 | 26.08467 | 323 ft | 18 kts | 15° |
| 2026-04-30 12:37 | 44.57674 | 26.08533 | 327 ft | 5 kts | 87° |
| 2026-04-30 12:37 | 44.57683 | 26.08660 | 325 ft | 42 kts | 84° |
| 2026-04-30 12:37 | 44.57743 | 26.09479 | 322 ft | 130 kts | 83° |
| 2026-04-30 12:37 | 44.57827 | 26.10893 | 987 ft | 150 kts | 84° |
| 2026-04-30 12:38 | 44.57808 | 26.12359 | 2157 ft | 151 kts | 88° |
| 2026-04-30 12:38 | 44.57715 | 26.13823 | 3359 ft | 147 kts | 85° |
| 2026-04-30 12:38 | 44.57854 | 26.15306 | 4230 ft | 167 kts | 77° |
| 2026-04-30 12:38 | 44.58107 | 26.17066 | 4719 ft | 199 kts | 78° |
| 2026-04-30 12:39 | 44.58352 | 26.19103 | 5358 ft | 224 kts | 81° |
| 2026-04-30 12:39 | 44.58569 | 26.21325 | 6245 ft | 238 kts | 83° |
| 2026-04-30 12:39 | 44.58778 | 26.23742 | 7096 ft | 256 kts | 84° |
| 2026-04-30 12:39 | 44.58981 | 26.26281 | 8187 ft | 267 kts | 85° |
| 2026-04-30 12:40 | 44.59187 | 26.28934 | 9311 ft | 279 kts | 86° |
| 2026-04-30 12:40 | 44.59355 | 26.31692 | 10478 ft | 288 kts | 93° |
| 2026-04-30 12:40 | 44.58846 | 26.34433 | 11150 ft | 309 kts | 122° |
| 2026-04-30 12:40 | 44.57342 | 26.36696 | 11622 ft | 331 kts | 150° |
| 2026-04-30 12:41 | 44.55150 | 26.37775 | 12425 ft | 341 kts | 176° |
| 2026-04-30 12:41 | 44.52758 | 26.37830 | 13498 ft | 348 kts | 184° |
| 2026-04-30 12:41 | 44.50341 | 26.37347 | 14477 ft | 354 kts | 198° |
| 2026-04-30 12:41 | 44.48109 | 26.35864 | 15436 ft | 358 kts | 218° |
| 2026-04-30 12:42 | 44.46374 | 26.33392 | 16540 ft | 357 kts | 233° |
| 2026-04-30 12:42 | 44.45012 | 26.30496 | 17773 ft | 353 kts | 241° |
| 2026-04-30 12:42 | 44.43874 | 26.27458 | 18938 ft | 351 kts | 245° |
| 2026-04-30 12:42 | 44.42835 | 26.24353 | 19872 ft | 354 kts | 246° |
| 2026-04-30 12:43 | 44.41815 | 26.21209 | 20741 ft | 357 kts | 246° |
| 2026-04-30 12:43 | 44.40773 | 26.18043 | 21641 ft | 359 kts | 245° |
| 2026-04-30 12:43 | 44.39701 | 26.14877 | 22522 ft | 361 kts | 245° |
| 2026-04-30 12:43 | 44.38599 | 26.11706 | 23373 ft | 364 kts | 244° |
| 2026-04-30 12:44 | 44.37471 | 26.08524 | 24119 ft | 366 kts | 244° |
| 2026-04-30 12:44 | 44.36325 | 26.05331 | 24818 ft | 367 kts | 244° |
| 2026-04-30 12:44 | 44.35190 | 26.02185 | 25513 ft | 368 kts | 244° |
| 2026-04-30 12:44 | 44.34036 | 25.98995 | 26206 ft | 368 kts | 245° |
| 2026-04-30 12:45 | 44.32879 | 25.95800 | 26821 ft | 369 kts | 245° |
| 2026-04-30 12:45 | 44.31719 | 25.92593 | 27446 ft | 370 kts | 245° |
| 2026-04-30 12:45 | 44.30554 | 25.89375 | 28056 ft | 371 kts | 245° |
| 2026-04-30 12:45 | 44.29389 | 25.86154 | 28650 ft | 372 kts | 245° |
| 2026-04-30 12:46 | 44.28615 | 25.84019 | 29020 ft | 373 kts | 246° |
| 2026-04-30 12:46 | 44.27442 | 25.80783 | 29669 ft | 372 kts | 245° |
| 2026-04-30 12:46 | 44.26277 | 25.77584 | 30528 ft | 366 kts | 246° |
| 2026-04-30 12:46 | 44.25130 | 25.74430 | 31063 ft | 365 kts | 246° |
| 2026-04-30 12:47 | 44.23971 | 25.71242 | 31371 ft | 370 kts | 246° |
| 2026-04-30 12:47 | 44.22803 | 25.68029 | 31733 ft | 372 kts | 246° |
| 2026-04-30 12:47 | 44.21628 | 25.64801 | 32125 ft | 375 kts | 246° |
| 2026-04-30 12:47 | 44.20444 | 25.61558 | 32501 ft | 376 kts | 246° |
| 2026-04-30 12:48 | 44.19254 | 25.58302 | 32916 ft | 377 kts | 246° |
| 2026-04-30 12:48 | 44.18060 | 25.55038 | 33300 ft | 379 kts | 246° |
| 2026-04-30 12:48 | 44.16860 | 25.51763 | 33690 ft | 380 kts | 246° |
| 2026-04-30 12:48 | 44.15668 | 25.48515 | 34070 ft | 382 kts | 246° |
| 2026-04-30 12:49 | 44.15259 | 25.47400 | 34203 ft | 382 kts | 246° |
| 2026-04-30 12:49 | 44.13908 | 25.43724 | 34558 ft | 384 kts | 246° |
| 2026-04-30 12:50 | 44.12689 | 25.40412 | 34827 ft | 386 kts | 246° |
| 2026-04-30 12:50 | 44.11462 | 25.37079 | 35105 ft | 388 kts | 246° |
| 2026-04-30 12:50 | 44.10224 | 25.33723 | 35251 ft | 391 kts | 246° |
| 2026-04-30 12:50 | 44.08983 | 25.30364 | 35268 ft | 391 kts | 246° |
| 2026-04-30 12:51 | 44.06494 | 25.23641 | 35267 ft | 390 kts | 246° |
| 2026-04-30 12:51 | 44.04008 | 25.16938 | 35270 ft | 391 kts | 246° |
| 2026-04-30 12:52 | 44.01503 | 25.10197 | 35272 ft | 393 kts | 246° |
| 2026-04-30 12:52 | 43.99001 | 25.03484 | 35271 ft | 393 kts | 246° |
| 2026-04-30 12:53 | 43.96480 | 24.96735 | 35272 ft | 394 kts | 246° |
| 2026-04-30 12:53 | 43.93885 | 24.90040 | 35273 ft | 395 kts | 242° |
| 2026-04-30 12:54 | 43.90370 | 24.84099 | 35273 ft | 405 kts | 228° |
| 2026-04-30 12:54 | 43.85582 | 24.79782 | 35270 ft | 421 kts | 211° |
| 2026-04-30 12:55 | 43.79893 | 24.77397 | 35243 ft | 432 kts | 201° |
| 2026-04-30 12:55 | 43.74025 | 24.75703 | 35268 ft | 434 kts | 200° |
| 2026-04-30 12:56 | 43.68098 | 24.74061 | 35263 ft | 433 kts | 200° |
| 2026-04-30 12:56 | 43.62205 | 24.72352 | 35263 ft | 433 kts | 200° |
| 2026-04-30 12:57 | 43.56322 | 24.70597 | 35263 ft | 432 kts | 201° |
| 2026-04-30 12:57 | 43.50447 | 24.68835 | 35254 ft | 432 kts | 201° |
| 2026-04-30 12:58 | 43.44661 | 24.67107 | 35262 ft | 432 kts | 201° |
| 2026-04-30 12:58 | 43.38784 | 24.65354 | 35268 ft | 432 kts | 201° |
| 2026-04-30 12:59 | 43.32903 | 24.63603 | 35262 ft | 432 kts | 201° |
| 2026-04-30 12:59 | 43.27060 | 24.61868 | 35262 ft | 433 kts | 201° |
| 2026-04-30 13:00 | 43.21127 | 24.60107 | 35254 ft | 438 kts | 201° |
| 2026-04-30 13:00 | 43.15161 | 24.58344 | 35256 ft | 439 kts | 201° |
| 2026-04-30 13:01 | 43.09184 | 24.56583 | 35257 ft | 439 kts | 201° |
| 2026-04-30 13:01 | 43.03205 | 24.54824 | 35246 ft | 439 kts | 201° |
| 2026-04-30 13:02 | 42.97219 | 24.53064 | 35241 ft | 439 kts | 201° |
| 2026-04-30 13:02 | 42.91279 | 24.51322 | 35234 ft | 439 kts | 201° |
| 2026-04-30 13:03 | 42.85297 | 24.49569 | 35231 ft | 440 kts | 202° |
| 2026-04-30 13:03 | 42.79304 | 24.47820 | 35230 ft | 440 kts | 202° |
| 2026-04-30 13:04 | 42.73311 | 24.46074 | 35210 ft | 440 kts | 202° |
| 2026-04-30 13:04 | 42.67351 | 24.44340 | 35191 ft | 440 kts | 202° |
| 2026-04-30 13:05 | 42.61371 | 24.42603 | 35194 ft | 441 kts | 202° |
| 2026-04-30 13:06 | 42.52370 | 24.39997 | 35183 ft | 441 kts | 202° |
| 2026-04-30 13:06 | 42.46364 | 24.38261 | 35171 ft | 441 kts | 201° |
| 2026-04-30 13:07 | 42.40352 | 24.36527 | 35170 ft | 442 kts | 201° |
| 2026-04-30 13:07 | 42.34337 | 24.34796 | 35170 ft | 442 kts | 201° |
| 2026-04-30 13:08 | 42.28316 | 24.33066 | 35169 ft | 442 kts | 201° |
| 2026-04-30 13:08 | 42.22304 | 24.31343 | 35169 ft | 442 kts | 201° |
| 2026-04-30 13:09 | 42.16285 | 24.29620 | 35165 ft | 442 kts | 201° |
| 2026-04-30 13:09 | 42.10269 | 24.27903 | 35162 ft | 442 kts | 201° |
| 2026-04-30 13:10 | 42.04285 | 24.26198 | 35153 ft | 442 kts | 201° |
| 2026-04-30 13:10 | 41.98257 | 24.24482 | 35158 ft | 442 kts | 201° |
| 2026-04-30 13:11 | 41.92224 | 24.22769 | 35146 ft | 443 kts | 201° |
| 2026-04-30 13:11 | 41.86186 | 24.21055 | 35130 ft | 443 kts | 201° |
| 2026-04-30 13:12 | 41.80188 | 24.19355 | 35118 ft | 443 kts | 201° |
| 2026-04-30 13:12 | 41.74144 | 24.17651 | 35101 ft | 445 kts | 201° |
| 2026-04-30 13:13 | 41.67964 | 24.16453 | 35081 ft | 459 kts | 190° |
| 2026-04-30 13:13 | 41.64737 | 24.16706 | 35090 ft | 471 kts | 180° |
| 2026-04-30 13:13 | 41.58393 | 24.19620 | 35059 ft | 498 kts | 156° |
| 2026-04-30 13:14 | 41.55557 | 24.22352 | 35068 ft | 509 kts | 144° |
| 2026-04-30 13:14 | 41.48418 | 24.33115 | 35055 ft | 519 kts | 133° |
| 2026-04-30 13:15 | 41.41701 | 24.44425 | 35061 ft | 516 kts | 134° |
| 2026-04-30 13:16 | 41.37164 | 24.51809 | 35065 ft | 514 kts | 134° |
| 2026-04-30 13:16 | 41.32612 | 24.59094 | 35064 ft | 514 kts | 135° |
| 2026-04-30 13:17 | 41.25764 | 24.70002 | 35061 ft | 508 kts | 134° |
| 2026-04-30 13:18 | 41.18957 | 24.80816 | 35061 ft | 508 kts | 135° |
| 2026-04-30 13:18 | 41.12174 | 24.91559 | 35062 ft | 508 kts | 135° |
| 2026-04-30 13:19 | 41.07603 | 24.98779 | 35058 ft | 508 kts | 135° |
| 2026-04-30 13:19 | 41.03093 | 25.05887 | 35060 ft | 506 kts | 135° |
| 2026-04-30 13:20 | 40.98556 | 25.13020 | 35045 ft | 505 kts | 134° |
| 2026-04-30 13:20 | 40.94037 | 25.20111 | 35049 ft | 502 kts | 134° |
| 2026-04-30 13:21 | 40.89531 | 25.27160 | 35050 ft | 502 kts | 135° |
| 2026-04-30 13:22 | 40.82757 | 25.37728 | 35040 ft | 501 kts | 135° |
| 2026-04-30 13:22 | 40.76013 | 25.48213 | 35042 ft | 501 kts | 135° |
| 2026-04-30 13:23 | 40.69240 | 25.58709 | 35037 ft | 501 kts | 135° |
| 2026-04-30 13:24 | 40.60227 | 25.72619 | 35042 ft | 499 kts | 134° |
| 2026-04-30 13:25 | 40.51190 | 25.86503 | 35050 ft | 499 kts | 134° |
| 2026-04-30 13:26 | 40.39806 | 26.03588 | 35055 ft | 497 kts | 135° |
| 2026-04-30 13:28 | 40.28391 | 26.20555 | 35046 ft | 495 kts | 135° |
| 2026-04-30 13:28 | 40.21546 | 26.30695 | 35020 ft | 494 kts | 135° |
| 2026-04-30 13:29 | 40.12385 | 26.44113 | 35020 ft | 493 kts | 137° |
| 2026-04-30 13:31 | 40.00205 | 26.59705 | 35013 ft | 491 kts | 139° |
| 2026-04-30 13:32 | 39.88830 | 26.74200 | 35009 ft | 490 kts | 139° |
| 2026-04-30 13:33 | 39.79073 | 26.86623 | 35004 ft | 490 kts | 139° |
| 2026-04-30 13:34 | 39.71703 | 26.95814 | 34995 ft | 490 kts | 140° |
| 2026-04-30 13:35 | 39.61801 | 27.07908 | 34994 ft | 490 kts | 140° |
| 2026-04-30 13:36 | 39.51871 | 27.20023 | 34992 ft | 490 kts | 140° |
| 2026-04-30 13:36 | 39.44969 | 27.29804 | 34997 ft | 494 kts | 132° |
| 2026-04-30 13:37 | 39.38496 | 27.40195 | 34991 ft | 494 kts | 132° |
| 2026-04-30 13:38 | 39.31958 | 27.50493 | 34986 ft | 494 kts | 133° |
| 2026-04-30 13:39 | 39.23155 | 27.64160 | 34980 ft | 495 kts | 133° |
| 2026-04-30 13:40 | 39.16570 | 27.74348 | 34985 ft | 495 kts | 133° |
| 2026-04-30 13:40 | 39.12160 | 27.81155 | 34987 ft | 494 kts | 133° |
| 2026-04-30 13:41 | 39.07751 | 27.87947 | 34991 ft | 494 kts | 133° |
| 2026-04-30 13:41 | 39.03333 | 27.94738 | 34990 ft | 494 kts | 133° |
| 2026-04-30 13:42 | 38.98945 | 28.01469 | 34975 ft | 494 kts | 133° |
| 2026-04-30 13:42 | 38.92319 | 28.11606 | 34989 ft | 493 kts | 133° |
| 2026-04-30 13:43 | 38.87893 | 28.18360 | 34974 ft | 493 kts | 133° |
| 2026-04-30 13:43 | 38.83498 | 28.25053 | 34986 ft | 493 kts | 133° |
| 2026-04-30 13:44 | 38.79072 | 28.31778 | 34983 ft | 493 kts | 133° |
| 2026-04-30 13:44 | 38.74647 | 28.38488 | 34989 ft | 492 kts | 133° |
| 2026-04-30 13:45 | 38.68002 | 28.48538 | 34990 ft | 493 kts | 133° |
| 2026-04-30 13:46 | 38.63573 | 28.55219 | 34992 ft | 493 kts | 133° |
| 2026-04-30 13:46 | 38.59129 | 28.61899 | 34994 ft | 492 kts | 134° |
| 2026-04-30 13:47 | 38.54019 | 28.67571 | 34991 ft | 485 kts | 148° |
| 2026-04-30 13:47 | 38.48482 | 28.72360 | 34973 ft | 483 kts | 150° |
| 2026-04-30 13:48 | 38.42879 | 28.77114 | 34996 ft | 484 kts | 150° |
| 2026-04-30 13:48 | 38.37327 | 28.81968 | 34995 ft | 484 kts | 149° |
| 2026-04-30 13:49 | 38.31807 | 28.86878 | 34998 ft | 484 kts | 149° |
| 2026-04-30 13:49 | 38.26280 | 28.91806 | 34995 ft | 484 kts | 149° |
| 2026-04-30 13:50 | 38.20757 | 28.96718 | 34986 ft | 484 kts | 149° |
| 2026-04-30 13:50 | 38.12489 | 29.04043 | 35002 ft | 484 kts | 149° |
| 2026-04-30 13:51 | 38.06956 | 29.08933 | 34990 ft | 485 kts | 149° |
| 2026-04-30 13:51 | 38.01419 | 29.13816 | 34995 ft | 485 kts | 149° |
| 2026-04-30 13:52 | 37.95876 | 29.18696 | 35000 ft | 485 kts | 149° |
| 2026-04-30 13:52 | 37.90337 | 29.23563 | 35005 ft | 485 kts | 149° |
| 2026-04-30 13:53 | 37.84808 | 29.28412 | 35007 ft | 485 kts | 149° |
| 2026-04-30 13:53 | 37.79255 | 29.33275 | 35002 ft | 486 kts | 149° |
| 2026-04-30 13:54 | 37.73691 | 29.38138 | 35008 ft | 486 kts | 149° |
| 2026-04-30 13:54 | 37.68123 | 29.42994 | 35010 ft | 486 kts | 149° |
| 2026-04-30 13:55 | 37.62560 | 29.47838 | 35003 ft | 486 kts | 149° |
| 2026-04-30 13:55 | 37.57014 | 29.52658 | 35004 ft | 486 kts | 149° |
| 2026-04-30 13:56 | 37.51436 | 29.57495 | 35006 ft | 487 kts | 149° |
| 2026-04-30 13:56 | 37.45844 | 29.62337 | 35002 ft | 486 kts | 148° |
| 2026-04-30 13:57 | 37.40291 | 29.67137 | 35005 ft | 487 kts | 149° |
| 2026-04-30 13:57 | 37.34697 | 29.71963 | 35005 ft | 487 kts | 148° |
| 2026-04-30 13:58 | 37.26294 | 29.79203 | 35010 ft | 488 kts | 149° |
| 2026-04-30 13:59 | 37.20688 | 29.84027 | 35014 ft | 488 kts | 148° |
| 2026-04-30 13:59 | 37.15085 | 29.88839 | 35017 ft | 488 kts | 148° |
| 2026-04-30 14:00 | 37.13228 | 29.90432 | 35018 ft | 489 kts | 148° |
| 2026-04-30 14:01 | 37.09730 | 29.93431 | 35017 ft | 489 kts | 148° |
| 2026-04-30 14:01 | 37.04111 | 29.98245 | 35023 ft | 489 kts | 148° |
| 2026-04-30 14:02 | 36.98486 | 30.03059 | 35020 ft | 490 kts | 148° |
| 2026-04-30 14:02 | 36.92884 | 30.07843 | 35020 ft | 490 kts | 148° |
| 2026-04-30 14:03 | 36.87261 | 30.12636 | 35014 ft | 489 kts | 148° |
| 2026-04-30 14:03 | 36.81627 | 30.17427 | 35019 ft | 490 kts | 148° |
| 2026-04-30 14:04 | 36.75980 | 30.22213 | 35024 ft | 491 kts | 148° |
| 2026-04-30 14:04 | 36.70320 | 30.27001 | 35023 ft | 491 kts | 148° |
| 2026-04-30 14:05 | 36.64652 | 30.31790 | 35021 ft | 492 kts | 148° |
| 2026-04-30 14:05 | 36.58990 | 30.36563 | 35016 ft | 491 kts | 148° |
| 2026-04-30 14:06 | 36.50502 | 30.43701 | 35007 ft | 489 kts | 148° |
| 2026-04-30 14:07 | 36.42042 | 30.50798 | 35006 ft | 488 kts | 148° |
| 2026-04-30 14:08 | 36.33612 | 30.57853 | 34998 ft | 489 kts | 148° |
| 2026-04-30 14:08 | 36.27965 | 30.62568 | 34990 ft | 489 kts | 148° |
| 2026-04-30 14:09 | 36.26127 | 30.64099 | 34997 ft | 491 kts | 148° |
| 2026-04-30 14:10 | 36.17632 | 30.71171 | 35001 ft | 492 kts | 148° |
| 2026-04-30 14:10 | 36.11935 | 30.75905 | 35001 ft | 493 kts | 148° |
| 2026-04-30 14:11 | 36.06242 | 30.80627 | 35001 ft | 493 kts | 149° |
| 2026-04-30 14:11 | 36.00668 | 30.85574 | 34992 ft | 494 kts | 144° |
| 2026-04-30 14:12 | 35.95295 | 30.90924 | 35002 ft | 496 kts | 143° |
| 2026-04-30 14:12 | 35.89953 | 30.96310 | 35006 ft | 496 kts | 143° |
| 2026-04-30 14:13 | 35.84587 | 31.01645 | 35001 ft | 494 kts | 143° |
| 2026-04-30 14:13 | 35.79249 | 31.06897 | 35004 ft | 494 kts | 143° |
| 2026-04-30 14:14 | 35.73868 | 31.12169 | 35000 ft | 494 kts | 143° |
| 2026-04-30 14:14 | 35.68482 | 31.17439 | 34999 ft | 496 kts | 143° |
| 2026-04-30 14:15 | 35.63065 | 31.22731 | 35007 ft | 497 kts | 143° |
| 2026-04-30 14:15 | 35.57652 | 31.28012 | 35004 ft | 496 kts | 143° |
| 2026-04-30 14:16 | 35.52244 | 31.33279 | 35004 ft | 496 kts | 143° |
| 2026-04-30 14:16 | 35.46876 | 31.38496 | 35004 ft | 495 kts | 143° |
| 2026-04-30 14:17 | 35.41470 | 31.43743 | 35004 ft | 495 kts | 143° |
| 2026-04-30 14:17 | 35.36045 | 31.48997 | 35003 ft | 498 kts | 144° |
| 2026-04-30 14:18 | 35.30596 | 31.54266 | 35003 ft | 498 kts | 144° |
| 2026-04-30 14:18 | 35.23356 | 31.61252 | 35004 ft | 497 kts | 144° |
| 2026-04-30 14:19 | 35.15199 | 31.69104 | 35004 ft | 497 kts | 144° |
| 2026-04-30 14:20 | 35.09752 | 31.74336 | 34993 ft | 498 kts | 144° |
| 2026-04-30 14:20 | 35.01543 | 31.82202 | 35011 ft | 500 kts | 144° |
| 2026-04-30 14:21 | 34.96079 | 31.87428 | 35007 ft | 499 kts | 144° |
| 2026-04-30 14:22 | 34.87911 | 31.95222 | 35005 ft | 499 kts | 144° |
| 2026-04-30 14:22 | 34.79733 | 32.03005 | 34995 ft | 499 kts | 144° |
| 2026-04-30 14:23 | 34.68737 | 32.13438 | 35004 ft | 500 kts | 144° |
| 2026-04-30 14:24 | 34.60532 | 32.21200 | 35003 ft | 500 kts | 144° |
| 2026-04-30 14:25 | 34.49530 | 32.31576 | 34989 ft | 500 kts | 144° |
| 2026-04-30 14:26 | 34.41266 | 32.39347 | 35001 ft | 500 kts | 145° |
| 2026-04-30 14:27 | 34.33064 | 32.47040 | 35000 ft | 500 kts | 145° |
| 2026-04-30 14:27 | 34.27553 | 32.52197 | 35002 ft | 500 kts | 145° |
| 2026-04-30 14:28 | 34.19302 | 32.59903 | 34986 ft | 500 kts | 145° |
| 2026-04-30 14:28 | 34.13782 | 32.65047 | 34996 ft | 500 kts | 145° |
| 2026-04-30 14:29 | 34.02473 | 32.74658 | 35004 ft | 497 kts | 152° |
| 2026-04-30 14:31 | 33.87714 | 32.85445 | 35003 ft | 498 kts | 152° |
| 2026-04-30 14:31 | 33.78851 | 32.92013 | 35007 ft | 497 kts | 152° |
| 2026-04-30 14:32 | 33.70018 | 32.98556 | 34999 ft | 497 kts | 152° |
| 2026-04-30 14:33 | 33.64126 | 33.02909 | 35007 ft | 497 kts | 152° |
| 2026-04-30 14:33 | 33.55328 | 33.09394 | 35001 ft | 497 kts | 152° |
| 2026-04-30 14:34 | 33.49436 | 33.13728 | 35001 ft | 497 kts | 152° |
| 2026-04-30 14:34 | 33.43551 | 33.18051 | 35005 ft | 496 kts | 153° |
| 2026-04-30 14:35 | 33.34737 | 33.24512 | 35001 ft | 495 kts | 153° |
| 2026-04-30 14:36 | 33.28856 | 33.28814 | 35001 ft | 496 kts | 153° |
| 2026-04-30 14:36 | 33.22973 | 33.33109 | 35003 ft | 496 kts | 153° |
| 2026-04-30 14:37 | 33.17084 | 33.37403 | 35002 ft | 496 kts | 153° |
| 2026-04-30 14:37 | 33.11230 | 33.41666 | 35002 ft | 496 kts | 153° |
| 2026-04-30 14:38 | 33.05333 | 33.45952 | 34986 ft | 496 kts | 153° |
| 2026-04-30 14:38 | 32.99420 | 33.50242 | 35001 ft | 498 kts | 153° |
| 2026-04-30 14:39 | 32.93491 | 33.54538 | 35003 ft | 498 kts | 153° |
| 2026-04-30 14:39 | 32.87557 | 33.58832 | 35003 ft | 499 kts | 153° |
| 2026-04-30 14:40 | 32.81779 | 33.63307 | 34999 ft | 504 kts | 141° |
| 2026-04-30 14:40 | 32.79283 | 33.66248 | 35003 ft | 507 kts | 137° |
| 2026-04-30 14:40 | 32.74444 | 33.72340 | 34699 ft | 502 kts | 137° |
| 2026-04-30 14:41 | 32.72051 | 33.75337 | 33706 ft | 500 kts | 137° |
| 2026-04-30 14:41 | 32.69653 | 33.78317 | 31939 ft | 498 kts | 137° |
| 2026-04-30 14:41 | 32.67238 | 33.81301 | 29752 ft | 505 kts | 137° |
| 2026-04-30 14:41 | 32.64801 | 33.84303 | 27797 ft | 502 kts | 137° |
| 2026-04-30 14:42 | 32.62424 | 33.87232 | 26503 ft | 483 kts | 137° |
| 2026-04-30 14:42 | 32.60131 | 33.90053 | 25225 ft | 466 kts | 137° |
| 2026-04-30 14:42 | 32.57907 | 33.92785 | 23945 ft | 453 kts | 137° |
| 2026-04-30 14:42 | 32.55751 | 33.95440 | 22528 ft | 440 kts | 136° |
| 2026-04-30 14:43 | 32.53675 | 33.98029 | 21183 ft | 425 kts | 136° |
| 2026-04-30 14:43 | 32.51705 | 34.00491 | 19927 ft | 411 kts | 136° |
| 2026-04-30 14:43 | 32.49773 | 34.02905 | 18673 ft | 397 kts | 136° |
| 2026-04-30 14:43 | 32.47901 | 34.05241 | 17308 ft | 384 kts | 135° |
| 2026-04-30 14:44 | 32.46084 | 34.07506 | 15836 ft | 375 kts | 135° |
| 2026-04-30 14:44 | 32.44295 | 34.09734 | 14401 ft | 368 kts | 135° |
| 2026-04-30 14:44 | 32.42570 | 34.11928 | 12937 ft | 360 kts | 130° |
| 2026-04-30 14:44 | 32.41147 | 34.14333 | 11435 ft | 354 kts | 125° |
| 2026-04-30 14:45 | 32.39789 | 34.16742 | 9995 ft | 348 kts | 124° |
| 2026-04-30 14:45 | 32.38470 | 34.19092 | 8605 ft | 347 kts | 125° |
| 2026-04-30 14:45 | 32.37139 | 34.21451 | 7736 ft | 341 kts | 125° |
| 2026-04-30 14:45 | 32.35836 | 34.23747 | 6988 ft | 331 kts | 126° |
| 2026-04-30 14:46 | 32.34561 | 34.25983 | 6144 ft | 325 kts | 126° |
| 2026-04-30 14:46 | 32.33294 | 34.28193 | 5445 ft | 324 kts | 126° |
| 2026-04-30 14:46 | 32.32026 | 34.30401 | 5099 ft | 324 kts | 126° |
| 2026-04-30 14:46 | 32.30761 | 34.32603 | 5010 ft | 323 kts | 126° |
| 2026-04-30 14:47 | 32.29499 | 34.34797 | 5014 ft | 323 kts | 126° |
| 2026-04-30 14:47 | 32.28252 | 34.36966 | 5006 ft | 322 kts | 126° |
| 2026-04-30 14:47 | 32.26992 | 34.39153 | 5020 ft | 322 kts | 127° |
| 2026-04-30 14:47 | 32.25728 | 34.41347 | 5009 ft | 322 kts | 126° |
| 2026-04-30 14:48 | 32.24465 | 34.43539 | 5014 ft | 323 kts | 126° |
| 2026-04-30 14:48 | 32.23202 | 34.45727 | 5000 ft | 322 kts | 126° |
| 2026-04-30 14:48 | 32.21936 | 34.47912 | 5007 ft | 321 kts | 126° |
| 2026-04-30 14:48 | 32.20696 | 34.50052 | 4995 ft | 301 kts | 126° |
| 2026-04-30 14:49 | 32.19571 | 34.51989 | 4996 ft | 274 kts | 126° |
| 2026-04-30 14:49 | 32.18511 | 34.53818 | 4992 ft | 268 kts | 126° |
| 2026-04-30 14:49 | 32.17466 | 34.55618 | 4998 ft | 268 kts | 127° |
| 2026-04-30 14:49 | 32.16509 | 34.57496 | 5003 ft | 270 kts | 115° |
| 2026-04-30 14:50 | 32.15867 | 34.61842 | 5007 ft | 274 kts | 94° |
| 2026-04-30 14:50 | 32.15857 | 34.64099 | 4996 ft | 274 kts | 92° |
| 2026-04-30 14:51 | 32.15898 | 34.68614 | 4998 ft | 274 kts | 92° |
| 2026-04-30 14:51 | 32.15875 | 34.70866 | 4989 ft | 274 kts | 93° |
| 2026-04-30 14:51 | 32.15735 | 34.75336 | 4994 ft | 274 kts | 96° |
| 2026-04-30 14:52 | 32.15352 | 34.77520 | 4988 ft | 271 kts | 109° |
| 2026-04-30 14:52 | 32.13913 | 34.81627 | 4986 ft | 270 kts | 118° |
| 2026-04-30 14:52 | 32.13083 | 34.83592 | 4767 ft | 266 kts | 118° |
| 2026-04-30 14:53 | 32.11409 | 34.87512 | 3461 ft | 271 kts | 117° |
| 2026-04-30 14:53 | 32.10579 | 34.89516 | 3087 ft | 273 kts | 115° |
| 2026-04-30 14:54 | 32.08952 | 34.93562 | 2989 ft | 273 kts | 115° |
| 2026-04-30 14:54 | 32.07341 | 34.97632 | 2991 ft | 273 kts | 114° |
| 2026-04-30 14:55 | 32.05733 | 35.01706 | 3002 ft | 276 kts | 115° |
| 2026-04-30 14:55 | 32.04926 | 35.03742 | 2995 ft | 278 kts | 114° |
| 2026-04-30 14:55 | 32.03290 | 35.07862 | 2988 ft | 278 kts | 114° |
| 2026-04-30 14:56 | 32.01688 | 35.11900 | 3029 ft | 265 kts | 114° |
| 2026-04-30 14:56 | 31.99997 | 35.15748 | 3007 ft | 253 kts | 133° |
| 2026-04-30 14:57 | 31.98573 | 35.16771 | 3013 ft | 234 kts | 163° |
| 2026-04-30 14:57 | 31.95427 | 35.16999 | 3010 ft | 226 kts | 192° |
| 2026-04-30 14:58 | 31.92508 | 35.16009 | 2984 ft | 202 kts | 204° |
| 2026-04-30 14:58 | 31.91204 | 35.15485 | 2994 ft | 196 kts | 205° |
| 2026-04-30 14:58 | 31.89731 | 35.13203 | 3018 ft | 182 kts | 265° |
| 2026-04-30 14:59 | 31.89679 | 35.10232 | 3017 ft | 184 kts | 273° |
| 2026-04-30 15:00 | 31.91164 | 35.06282 | 3010 ft | 177 kts | 303° |
| 2026-04-30 15:00 | 31.92504 | 35.03780 | 2918 ft | 179 kts | 302° |
| 2026-04-30 15:01 | 31.93790 | 35.01331 | 2185 ft | 178 kts | 302° |
| 2026-04-30 15:01 | 31.94228 | 35.00493 | 2056 ft | 177 kts | 302° |
| 2026-04-30 15:01 | 31.95677 | 34.97711 | 2035 ft | 165 kts | 305° |
| 2026-04-30 15:02 | 31.96231 | 34.96642 | 1852 ft | 144 kts | 304° |
| 2026-04-30 15:02 | 31.96721 | 34.95659 | 1514 ft | 136 kts | 304° |
| 2026-04-30 15:03 | 31.98065 | 34.93121 | 945 ft | 116 kts | 309° |
| 2026-04-30 15:03 | 31.98906 | 34.91515 | 607 ft | 115 kts | 307° |
| 2026-04-30 15:04 | 31.99745 | 34.89900 | 258 ft | 111 kts | 304° |
| 2026-04-30 15:04 | 32.00685 | 34.88100 | 120 ft | 43 kts | 301° |
| 2026-04-30 15:05 | 32.01051 | 34.87321 | 124 ft | 29 kts | 281° |
| 2026-04-30 15:06 | 32.01065 | 34.87089 | 123 ft | 10 kts | 270° |
| 2026-04-30 15:06 | 32.01065 | 34.87025 | 123 ft | 0 kts | 270° |
| 2026-04-30 15:07 | 32.01051 | 34.86964 | 120 ft | 13 kts | 237° |
| 2026-04-30 15:07 | 32.00920 | 34.87055 | 122 ft | 33 kts | 121° |
| 2026-04-30 15:08 | 32.00763 | 34.87354 | 121 ft | 14 kts | 123° |
| 2026-04-30 15:08 | 32.00652 | 34.87379 | 121 ft | 0 kts | 180° |